Time;durP1;ratioP1;P1;durP2;ratioP2;P2;SDS_P1;SDS_P2;PMS_P1;PMS_P2;Temp;Humidity;BMP_temperature;BMP_pressure;BME280_temperature;BME280_humidity;BME280_pressure;Samples;Min_cycle;Max_cycle;Signal;HPM_P1;HPM_P2
2023/07/11 00:00:14;;;;;;;4.00;2.25;;;;;;;;;;5087506;28;42765;-63
2023/07/11 00:02:42;;;;;;;4.60;2.35;;;;;;;;;;5087180;28;40752;-63
2023/07/11 00:05:12;;;;;;;5.68;2.30;;;;;;;;;;5087077;28;41746;-63
2023/07/11 00:07:40;;;;;;;4.93;2.15;;;;;;;;;;5086820;28;42069;-63
2023/07/11 00:10:08;;;;;;;5.10;2.13;;;;;;;;;;5087547;28;41212;-63
2023/07/11 00:12:36;;;;;;;5.70;2.22;;;;;;;;;;5086465;28;42155;-63
2023/07/11 00:15:06;;;;;;;6.00;2.03;;;;;;;;;;5087823;28;40373;-63
2023/07/11 00:17:35;;;;;;;4.57;2.28;;;;;;;;;;5085794;28;41298;-63
2023/07/11 00:20:04;;;;;;;3.60;2.00;;;;;;;;;;5087291;28;41997;-63
2023/07/11 00:22:32;;;;;;;3.75;2.17;;;;;;;;;;5086722;28;40441;-63
2023/07/11 00:25:00;;;;;;;5.63;2.35;;;;;;;;;;5086696;28;42270;-63
2023/07/11 00:27:28;;;;;;;4.45;1.95;;;;;;;;;;5086788;28;43118;-63
2023/07/11 00:29:57;;;;;;;5.43;2.58;;;;;;;;;;5085565;28;40777;-63
2023/07/11 00:32:26;;;;;;;4.15;2.38;;;;;;;;;;5085941;28;42294;-63
2023/07/11 00:34:54;;;;;;;4.18;2.22;;;;;;;;;;5085871;28;40930;-63
2023/07/11 00:37:22;;;;;;;3.97;2.03;;;;;;;;;;5086865;28;41559;-64
2023/07/11 00:39:51;;;;;;;5.18;2.03;;;;;;;;;;5086476;28;42805;-63
2023/07/11 00:42:19;;;;;;;3.80;2.13;;;;;;;;;;5086848;28;40442;-63
2023/07/11 00:44:48;;;;;;;3.97;2.08;;;;;;;;;;5087258;28;42266;-63
2023/07/11 00:47:17;;;;;;;5.40;3.00;;;;;;;;;;5084577;28;41231;-63
2023/07/11 00:49:46;;;;;;;3.53;2.05;;;;;;;;;;5098657;28;39094;-64
2023/07/11 00:52:14;;;;;;;3.95;2.15;;;;;;;;;;5105739;28;40172;-63
2023/07/11 00:54:42;;;;;;;4.82;2.20;;;;;;;;;;5105100;28;42043;-63
2023/07/11 00:57:11;;;;;;;5.53;1.92;;;;;;;;;;5106232;28;40775;-63
2023/07/11 00:59:39;;;;;;;3.53;2.08;;;;;;;;;;5106883;28;42865;-63
2023/07/11 01:02:07;;;;;;;6.85;2.17;;;;;;;;;;5106961;27;40843;-63
2023/07/11 01:04:35;;;;;;;5.13;2.40;;;;;;;;;;5104992;28;42634;-63
2023/07/11 01:07:05;;;;;;;2.78;2.40;;;;;;;;;;5105753;28;41730;-63
2023/07/11 01:09:33;;;;;;;2.40;2.00;;;;;;;;;;5106978;28;41149;-63
2023/07/11 01:12:02;;;;;;;4.20;2.35;;;;;;;;;;5107506;28;41678;-63
2023/07/11 01:14:30;;;;;;;4.90;2.28;;;;;;;;;;5104368;27;41902;-64
2023/07/11 01:16:58;;;;;;;5.00;2.42;;;;;;;;;;5110287;27;41180;-63
2023/07/11 01:19:26;;;;;;;5.82;1.98;;;;;;;;;;5110659;28;42019;-63
2023/07/11 01:21:55;;;;;;;4.30;2.00;;;;;;;;;;5109837;27;40379;-63
2023/07/11 01:24:23;;;;;;;6.80;2.45;;;;;;;;;;5110287;28;41447;-63
2023/07/11 01:26:51;;;;;;;4.07;2.10;;;;;;;;;;5109020;28;41955;-63
2023/07/11 01:29:19;;;;;;;4.22;2.22;;;;;;;;;;5108970;28;41303;-64
2023/07/11 01:31:47;;;;;;;2.55;1.95;;;;;;;;;;5110308;28;41630;-63
2023/07/11 01:34:15;;;;;;;4.40;2.40;;;;;;;;;;5110568;28;41753;-63
2023/07/11 01:36:43;;;;;;;4.45;2.55;;;;;;;;;;5109611;27;41639;-63
2023/07/11 01:39:12;;;;;;;3.58;2.20;;;;;;;;;;5111058;28;41704;-63
2023/07/11 01:41:40;;;;;;;5.18;2.30;;;;;;;;;;5110047;27;40965;-63
2023/07/11 01:44:09;;;;;;;4.22;2.13;;;;;;;;;;5109742;27;42162;-63
2023/07/11 01:46:37;;;;;;;5.28;2.50;;;;;;;;;;5109900;28;41679;-63
2023/07/11 01:49:05;;;;;;;4.57;2.20;;;;;;;;;;5100628;28;40179;-63
2023/07/11 01:51:33;;;;;;;4.30;2.38;;;;;;;;;;5089698;28;41773;-63
2023/07/11 01:54:01;;;;;;;4.63;2.60;;;;;;;;;;5088839;28;42090;-63
2023/07/11 01:56:31;;;;;;;4.03;2.20;;;;;;;;;;5088103;28;40145;-63
2023/07/11 01:58:59;;;;;;;5.38;2.65;;;;;;;;;;5087778;28;40956;-63
2023/07/11 02:01:26;;;;;;;4.35;2.13;;;;;;;;;;5087749;28;40667;-63
2023/07/11 02:03:56;;;;;;;4.55;2.17;;;;;;;;;;5088890;28;42022;-63
2023/07/11 02:06:24;;;;;;;4.88;2.88;;;;;;;;;;5089271;28;42135;-63
2023/07/11 02:08:52;;;;;;;3.42;2.05;;;;;;;;;;5104988;28;39164;-63
2023/07/11 02:11:20;;;;;;;3.22;2.60;;;;;;;;;;5100085;28;40327;-63
2023/07/11 02:13:49;;;;;;;5.95;2.70;;;;;;;;;;5108172;28;40575;-63
2023/07/11 02:16:17;;;;;;;4.32;2.25;;;;;;;;;;5109076;27;39911;-63
2023/07/11 02:18:47;;;;;;;3.90;2.30;;;;;;;;;;5108810;28;42188;-63
2023/07/11 02:21:15;;;;;;;4.65;2.53;;;;;;;;;;5096308;27;42104;-63
2023/07/11 02:23:43;;;;;;;4.75;2.45;;;;;;;;;;5089736;28;42287;-63
2023/07/11 02:26:11;;;;;;;4.50;2.30;;;;;;;;;;5088858;28;42888;-63
2023/07/11 02:28:39;;;;;;;6.75;2.97;;;;;;;;;;5088384;28;40987;-63
2023/07/11 02:31:09;;;;;;;4.13;2.40;;;;;;;;;;5088828;28;42683;-63
2023/07/11 02:33:38;;;;;;;4.88;2.35;;;;;;;;;;5088349;28;42107;-64
2023/07/11 02:36:06;;;;;;;4.15;2.70;;;;;;;;;;5090814;28;40617;-63
2023/07/11 02:38:34;;;;;;;5.88;2.55;;;;;;;;;;5107861;27;42245;-63
2023/07/11 02:41:02;;;;;;;4.63;2.63;;;;;;;;;;5109624;27;42319;-63
2023/07/11 02:43:30;;;;;;;7.22;2.80;;;;;;;;;;5108624;27;40523;-63
2023/07/11 02:45:58;;;;;;;4.15;2.78;;;;;;;;;;5108226;27;42338;-63
2023/07/11 02:48:29;;;;;;;4.63;2.55;;;;;;;;;;5108641;28;41025;-63
2023/07/11 02:50:57;;;;;;;6.13;2.60;;;;;;;;;;5109298;27;41277;-63
2023/07/11 02:53:25;;;;;;;6.75;2.75;;;;;;;;;;5107893;27;42751;-63
2023/07/11 02:55:53;;;;;;;6.35;3.20;;;;;;;;;;5108936;27;41041;-63
2023/07/11 02:58:21;;;;;;;4.88;2.60;;;;;;;;;;5108507;27;41731;-63
2023/07/11 03:00:49;;;;;;;3.55;2.45;;;;;;;;;;5108566;27;43172;-63
2023/07/11 03:03:17;;;;;;;5.78;2.75;;;;;;;;;;5108256;27;40305;-63
2023/07/11 03:05:47;;;;;;;7.15;3.13;;;;;;;;;;5109009;27;41183;-63
2023/07/11 03:08:15;;;;;;;8.88;3.17;;;;;;;;;;5108381;27;42746;-63
2023/07/11 03:10:43;;;;;;;5.13;2.65;;;;;;;;;;5108529;27;41307;-63
2023/07/11 03:13:11;;;;;;;4.53;2.50;;;;;;;;;;5104603;27;42007;-63
2023/07/11 03:15:39;;;;;;;5.43;2.60;;;;;;;;;;5096173;28;42172;-63
2023/07/11 03:18:07;;;;;;;5.43;2.90;;;;;;;;;;5087968;28;42235;-63
2023/07/11 03:20:36;;;;;;;3.75;2.58;;;;;;;;;;5087195;28;42730;-63
2023/07/11 03:23:06;;;;;;;4.53;2.70;;;;;;;;;;5095464;28;40039;-63
2023/07/11 03:25:34;;;;;;;5.85;3.05;;;;;;;;;;5107557;27;41750;-63
2023/07/11 03:28:02;;;;;;;4.93;2.72;;;;;;;;;;5106933;27;42432;-63
2023/07/11 03:30:30;;;;;;;4.97;2.83;;;;;;;;;;5107789;27;40447;-63
2023/07/11 03:32:58;;;;;;;7.90;3.30;;;;;;;;;;5108209;27;42113;-63
2023/07/11 03:35:26;;;;;;;4.72;2.97;;;;;;;;;;5097820;27;41117;-63
2023/07/11 03:37:54;;;;;;;4.13;2.70;;;;;;;;;;5087224;28;42819;-63
2023/07/11 03:40:24;;;;;;;4.80;3.13;;;;;;;;;;5087705;28;42071;-63
2023/07/11 03:42:52;;;;;;;6.50;2.75;;;;;;;;;;5087673;28;40568;-63
2023/07/11 03:45:20;;;;;;;7.18;3.08;;;;;;;;;;5095503;28;42675;-63
2023/07/11 03:47:48;;;;;;;5.45;2.88;;;;;;;;;;5101753;27;41446;-63
2023/07/11 03:50:16;;;;;;;6.10;3.53;;;;;;;;;;5107308;27;41423;-63
2023/07/11 03:52:44;;;;;;;5.53;2.53;;;;;;;;;;5107931;27;41550;-63
2023/07/11 03:55:12;;;;;;;7.10;2.97;;;;;;;;;;5108165;27;39957;-63
2023/07/11 03:57:42;;;;;;;5.10;3.03;;;;;;;;;;5106397;27;42402;-63
2023/07/11 04:00:10;;;;;;;5.93;3.05;;;;;;;;;;5107618;27;42110;-63
2023/07/11 04:02:41;;;;;;;5.57;2.90;;;;;;;;;;5107461;28;42111;-63
2023/07/11 04:05:09;;;;;;;5.05;3.20;;;;;;;;;;5108717;27;41527;-63
2023/07/11 04:07:37;;;;;;;5.18;3.03;;;;;;;;;;5107156;27;43298;-63
2023/07/11 04:10:07;;;;;;;9.48;3.28;;;;;;;;;;5107186;27;40326;-63
2023/07/11 04:12:35;;;;;;;5.57;3.20;;;;;;;;;;5107697;27;42268;-63
2023/07/11 04:15:05;;;;;;;6.28;2.92;;;;;;;;;;5107809;27;40495;-63
2023/07/11 04:17:33;;;;;;;4.20;2.95;;;;;;;;;;5106631;27;42274;-63
2023/07/11 04:20:01;;;;;;;6.47;3.10;;;;;;;;;;5108417;27;43539;-63
2023/07/11 04:22:29;;;;;;;4.15;3.10;;;;;;;;;;5107144;27;41007;-66
2023/07/11 04:24:57;;;;;;;5.05;2.95;;;;;;;;;;5090864;27;41948;-63
2023/07/11 04:27:25;;;;;;;3.78;2.78;;;;;;;;;;5102691;27;42417;-63
2023/07/11 04:29:53;;;;;;;4.13;2.88;;;;;;;;;;5099017;28;39561;-63
2023/07/11 04:32:22;;;;;;;7.50;3.20;;;;;;;;;;5086349;28;43102;-63
2023/07/11 04:34:50;;;;;;;5.07;3.22;;;;;;;;;;5087447;28;42290;-63
2023/07/11 04:37:18;;;;;;;5.93;3.70;;;;;;;;;;5086687;28;41600;-63
2023/07/11 04:39:46;;;;;;;7.78;3.42;;;;;;;;;;5086720;28;42224;-63
2023/07/11 04:42:14;;;;;;;4.90;3.28;;;;;;;;;;5106172;28;39147;-63
2023/07/11 04:44:42;;;;;;;4.72;3.10;;;;;;;;;;5107641;27;43718;-63
2023/07/11 04:47:10;;;;;;;6.68;3.25;;;;;;;;;;5106689;27;43836;-63
2023/07/11 04:49:39;;;;;;;6.40;3.00;;;;;;;;;;5106467;27;40088;-63
2023/07/11 04:52:07;;;;;;;4.35;2.78;;;;;;;;;;5104981;27;42634;-63
2023/07/11 04:54:36;;;;;;;5.45;3.17;;;;;;;;;;5085981;28;43168;-63
2023/07/11 04:57:04;;;;;;;6.68;3.30;;;;;;;;;;5092246;28;41669;-63
2023/07/11 04:59:32;;;;;;;5.45;3.40;;;;;;;;;;5095874;28;40959;-63
2023/07/11 05:02:00;;;;;;;7.03;4.15;;;;;;;;;;5095435;28;40052;-63
2023/07/11 05:04:28;;;;;;;8.63;4.47;;;;;;;;;;5088135;27;41325;-63
2023/07/11 05:07:00;;;;;;;8.20;4.72;;;;;;;;;;5091423;28;42272;-63
2023/07/11 05:09:28;;;;;;;6.63;4.72;;;;;;;;;;5100366;27;40445;-63
2023/07/11 05:11:56;;;;;;;9.95;4.97;;;;;;;;;;5086781;28;41437;-63
2023/07/11 05:14:24;;;;;;;12.25;5.07;;;;;;;;;;5096412;28;43161;-63
2023/07/11 05:16:52;;;;;;;9.40;5.63;;;;;;;;;;5106927;27;41903;-63
2023/07/11 05:19:21;;;;;;;8.32;5.03;;;;;;;;;;5103245;27;41805;-63
2023/07/11 05:21:49;;;;;;;7.72;4.63;;;;;;;;;;5086058;28;40122;-63
2023/07/11 05:24:18;;;;;;;8.57;4.85;;;;;;;;;;5096921;28;41297;-63
2023/07/11 05:26:46;;;;;;;8.98;5.25;;;;;;;;;;5106927;27;42098;-63
2023/07/11 05:29:14;;;;;;;8.93;4.75;;;;;;;;;;5102774;27;40299;-63
2023/07/11 05:31:42;;;;;;;11.52;4.82;;;;;;;;;;5106672;27;40916;-63
2023/07/11 05:34:10;;;;;;;9.30;4.70;;;;;;;;;;5102638;27;42633;-64
2023/07/11 05:36:38;;;;;;;10.93;5.10;;;;;;;;;;5105075;28;41414;-66
2023/07/11 05:39:08;;;;;;;9.55;4.53;;;;;;;;;;5104218;27;42134;-65
2023/07/11 05:41:37;;;;;;;10.13;4.70;;;;;;;;;;5103096;28;34005;-64
2023/07/11 05:44:05;;;;;;;8.00;4.53;;;;;;;;;;5102515;27;41714;-66
2023/07/11 05:46:33;;;;;;;10.10;4.13;;;;;;;;;;5099578;28;42359;-66
2023/07/11 05:49:03;;;;;;;9.60;4.85;;;;;;;;;;5105499;27;40554;-66
2023/07/11 05:51:31;;;;;;;8.45;4.97;;;;;;;;;;5106257;27;42256;-66
2023/07/11 05:53:59;;;;;;;11.30;4.57;;;;;;;;;;5105974;27;42172;-68
2023/07/11 05:56:27;;;;;;;11.05;4.20;;;;;;;;;;5097368;27;41442;-65
2023/07/11 05:58:56;;;;;;;10.98;4.78;;;;;;;;;;5106866;27;42287;-64
2023/07/11 06:01:27;;;;;;;13.73;4.57;;;;;;;;;;5106746;27;42514;-63
2023/07/11 06:04:03;;;;;;;9.55;3.95;;;;;;;;;;5109319;27;41825;-63
2023/07/11 06:06:33;;;;;;;6.25;3.47;;;;;;;;;;5109546;27;43802;-64
2023/07/11 06:09:01;;;;;;;13.65;4.15;;;;;;;;;;5109801;27;40921;-63
2023/07/11 06:11:28;;;;;;;8.02;3.80;;;;;;;;;;5108543;27;41652;-64
2023/07/11 06:13:58;;;;;;;9.10;3.67;;;;;;;;;;5109835;27;43198;-64
2023/07/11 06:16:26;;;;;;;6.63;3.80;;;;;;;;;;5108524;27;41495;-64
2023/07/11 06:18:54;;;;;;;7.53;3.20;;;;;;;;;;5109799;27;41707;-64
2023/07/11 06:21:22;;;;;;;6.88;3.33;;;;;;;;;;5109018;27;42406;-64
2023/07/11 06:23:50;;;;;;;7.55;3.33;;;;;;;;;;5109050;27;40314;-64
2023/07/11 06:26:18;;;;;;;6.30;3.47;;;;;;;;;;5108662;27;42128;-64
2023/07/11 06:28:46;;;;;;;11.75;4.05;;;;;;;;;;5109417;27;39927;-64
2023/07/11 06:31:15;;;;;;;5.07;3.50;;;;;;;;;;5108532;27;42164;-64
2023/07/11 06:33:43;;;;;;;8.70;3.40;;;;;;;;;;5104447;27;41977;-62
2023/07/11 06:36:12;;;;;;;7.90;3.20;;;;;;;;;;5106261;27;40411;-62
2023/07/11 06:38:40;;;;;;;6.22;3.88;;;;;;;;;;5098969;27;42612;-62
2023/07/11 06:41:08;;;;;;;7.65;3.80;;;;;;;;;;5101796;28;42546;-62
2023/07/11 06:43:36;;;;;;;9.77;3.88;;;;;;;;;;5097389;27;41281;-62
2023/07/11 06:46:04;;;;;;;8.32;3.50;;;;;;;;;;5098758;27;41702;-62
2023/07/11 06:48:33;;;;;;;8.32;3.15;;;;;;;;;;5098611;27;40876;-62
2023/07/11 06:51:02;;;;;;;6.15;3.17;;;;;;;;;;5097969;27;41218;-62
2023/07/11 06:53:30;;;;;;;14.00;3.42;;;;;;;;;;5104629;27;41457;-62
2023/07/11 06:55:58;;;;;;;7.75;3.50;;;;;;;;;;5102724;27;41284;-62
2023/07/11 06:58:26;;;;;;;7.53;3.25;;;;;;;;;;5100044;27;41584;-63
2023/07/11 07:00:55;;;;;;;8.05;3.28;;;;;;;;;;5099269;28;42528;-63
2023/07/11 07:03:23;;;;;;;6.05;3.38;;;;;;;;;;5096622;27;39959;-63
2023/07/11 07:05:53;;;;;;;10.45;3.28;;;;;;;;;;5099345;28;40935;-63
2023/07/11 07:08:21;;;;;;;7.03;2.88;;;;;;;;;;5100882;27;42093;-63
2023/07/11 07:10:49;;;;;;;6.10;3.25;;;;;;;;;;5100692;27;41515;-63
2023/07/11 07:13:17;;;;;;;5.95;2.90;;;;;;;;;;5095403;27;42283;-63
2023/07/11 07:15:47;;;;;;;8.88;2.90;;;;;;;;;;5100216;28;41385;-63
2023/07/11 07:18:15;;;;;;;7.50;3.03;;;;;;;;;;5100925;27;41921;-63
2023/07/11 07:20:43;;;;;;;6.80;2.90;;;;;;;;;;5097349;27;41782;-63
2023/07/11 07:23:25;;;;;;;6.95;2.85;;;;;;;;;;5101463;27;40191;-63
2023/07/11 07:25:54;;;;;;;7.30;3.17;;;;;;;;;;5107154;27;42366;-63
2023/07/11 07:28:22;;;;;;;6.60;2.83;;;;;;;;;;5107527;27;43798;-62
2023/07/11 07:30:51;;;;;;;7.20;2.90;;;;;;;;;;5106933;27;40208;-62
2023/07/11 07:33:20;;;;;;;10.10;3.05;;;;;;;;;;5107589;27;41631;-63
2023/07/11 07:35:47;;;;;;;14.43;3.08;;;;;;;;;;5107514;27;40785;-63
2023/07/11 07:38:15;;;;;;;5.50;2.75;;;;;;;;;;5108759;27;42380;-63
2023/07/11 07:40:45;;;;;;;9.05;2.85;;;;;;;;;;5107367;27;41825;-63
2023/07/11 07:43:13;;;;;;;6.43;2.95;;;;;;;;;;5108039;27;41463;-62
2023/07/11 07:45:41;;;;;;;8.68;2.80;;;;;;;;;;5107847;27;42623;-63
2023/07/11 07:48:09;;;;;;;11.13;3.17;;;;;;;;;;5104381;27;42805;-67
2023/07/11 07:50:37;;;;;;;9.18;2.80;;;;;;;;;;5096290;27;40945;-63
2023/07/11 07:53:05;;;;;;;6.93;3.13;;;;;;;;;;5103728;28;43198;-63
2023/07/11 07:55:34;;;;;;;7.70;3.20;;;;;;;;;;5093532;27;40835;-63
2023/07/11 07:58:04;;;;;;;8.45;2.92;;;;;;;;;;5090270;28;41671;-70
2023/07/11 08:00:32;;;;;;;10.35;3.05;;;;;;;;;;5101454;27;42191;-66
2023/07/11 08:03:00;;;;;;;8.32;3.30;;;;;;;;;;5103219;28;41201;-64
2023/07/11 08:05:28;;;;;;;4.80;3.00;;;;;;;;;;5099564;28;41769;-64
2023/07/11 08:07:56;;;;;;;11.55;3.10;;;;;;;;;;5105148;27;43074;-63
2023/07/11 08:10:24;;;;;;;6.35;3.58;;;;;;;;;;5095741;28;41470;-65
2023/07/11 08:12:52;;;;;;;6.82;3.05;;;;;;;;;;5094984;27;41663;-65
2023/07/11 08:15:21;;;;;;;9.63;3.25;;;;;;;;;;5096137;27;40982;-65
2023/07/11 08:17:49;;;;;;;10.63;2.88;;;;;;;;;;5098255;28;42542;-64
2023/07/11 08:20:17;;;;;;;8.15;3.00;;;;;;;;;;5101239;28;42161;-63
2023/07/11 08:22:45;;;;;;;9.00;3.30;;;;;;;;;;5108174;27;41357;-65
2023/07/11 08:25:14;;;;;;;7.18;3.15;;;;;;;;;;5101807;27;42066;-65
2023/07/11 08:27:43;;;;;;;9.18;3.22;;;;;;;;;;5107695;27;43148;-65
2023/07/11 08:30:11;;;;;;;7.53;2.50;;;;;;;;;;5105363;27;41410;-65
2023/07/11 08:32:40;;;;;;;7.55;2.88;;;;;;;;;;5106743;27;42686;-65
2023/07/11 08:35:11;;;;;;;9.13;3.00;;;;;;;;;;5108349;27;43130;-66
2023/07/11 08:37:39;;;;;;;6.80;3.17;;;;;;;;;;5106365;27;41548;-65
2023/07/11 08:40:09;;;;;;;6.45;3.17;;;;;;;;;;5107578;27;42148;-65
2023/07/11 08:42:40;;;;;;;5.32;2.97;;;;;;;;;;5106622;27;41065;-65
2023/07/11 08:45:11;;;;;;;6.25;2.75;;;;;;;;;;5106661;27;42938;-65
2023/07/11 08:47:43;;;;;;;9.55;2.85;;;;;;;;;;5106625;27;42122;-65
2023/07/11 08:50:12;;;;;;;7.78;2.78;;;;;;;;;;5107046;27;40842;-62
2023/07/11 08:52:40;;;;;;;9.43;3.08;;;;;;;;;;5105614;27;41684;-62
2023/07/11 08:55:12;;;;;;;12.45;3.20;;;;;;;;;;5107315;27;43107;-62
2023/07/11 08:57:41;;;;;;;6.55;2.83;;;;;;;;;;5106295;27;40547;-62
2023/07/11 09:00:12;;;;;;;10.10;3.55;;;;;;;;;;5106454;27;42202;-62
2023/07/11 09:02:43;;;;;;;7.80;2.50;;;;;;;;;;5106559;27;40909;-62
2023/07/11 09:05:13;;;;;;;13.30;2.85;;;;;;;;;;5106724;27;42435;-63
2023/07/11 09:07:42;;;;;;;5.47;2.67;;;;;;;;;;5106521;27;41871;-62
2023/07/11 09:10:16;;;;;;;16.88;2.80;;;;;;;;;;5105510;27;40640;-63
2023/07/11 09:12:45;;;;;;;7.13;2.97;;;;;;;;;;5086467;28;41653;-66
2023/07/11 09:15:15;;;;;;;5.93;2.65;;;;;;;;;;5087017;28;43144;-64
2023/07/11 09:17:48;;;;;;;6.13;2.70;;;;;;;;;;5104945;28;41605;-63
2023/07/11 09:20:21;;;;;;;9.43;2.58;;;;;;;;;;5107238;27;41960;-64
2023/07/11 09:22:51;;;;;;;3.92;2.65;;;;;;;;;;5106713;27;39632;-65
2023/07/11 09:25:20;;;;;;;5.22;2.25;;;;;;;;;;5106385;27;41904;-62
2023/07/11 09:27:49;;;;;;;6.57;2.78;;;;;;;;;;5105350;27;41984;-62
2023/07/11 09:30:18;;;;;;;5.95;2.50;;;;;;;;;;5100408;27;40351;-62
2023/07/11 09:32:47;;;;;;;11.23;2.78;;;;;;;;;;5097205;28;41099;-62
2023/07/11 09:35:22;;;;;;;7.57;2.30;;;;;;;;;;5098368;27;42305;-65
2023/07/11 09:37:50;;;;;;;6.85;2.65;;;;;;;;;;5104301;27;40226;-64
2023/07/11 09:40:20;;;;;;;4.10;2.15;;;;;;;;;;5094750;28;42463;-62
2023/07/11 09:42:49;;;;;;;7.95;3.03;;;;;;;;;;5101347;27;42087;-65
2023/07/11 09:45:18;;;;;;;8.98;2.60;;;;;;;;;;5104073;28;41735;-67
2023/07/11 09:47:51;;;;;;;6.88;2.70;;;;;;;;;;5097047;27;42333;-67
2023/07/11 09:50:27;;;;;;;8.32;2.30;;;;;;;;;;5099399;28;42044;-67
2023/07/11 09:53:10;;;;;;;7.85;2.47;;;;;;;;;;5099931;27;42603;-65
2023/07/11 09:55:38;;;;;;;7.68;2.30;;;;;;;;;;5088589;28;40183;-66
2023/07/11 09:58:06;;;;;;;8.38;2.65;;;;;;;;;;5103322;28;40942;-66
2023/07/11 10:00:36;;;;;;;6.53;2.30;;;;;;;;;;5095512;27;41617;-65
2023/07/11 10:03:05;;;;;;;9.63;3.08;;;;;;;;;;5087518;28;43214;-65
2023/07/11 10:05:33;;;;;;;7.85;2.67;;;;;;;;;;5088762;28;41201;-62
2023/07/11 10:08:01;;;;;;;8.20;2.78;;;;;;;;;;5088423;27;41881;-61
2023/07/11 10:10:31;;;;;;;7.55;3.20;;;;;;;;;;5086081;28;41540;-61
2023/07/11 10:13:01;;;;;;;6.70;2.78;;;;;;;;;;5076442;28;41696;-61
2023/07/11 10:15:41;;;;;;;6.85;2.40;;;;;;;;;;5097411;28;42748;-62
2023/07/11 10:18:17;;;;;;;4.90;2.53;;;;;;;;;;5102796;27;40101;-62
2023/07/11 10:20:46;;;;;;;10.10;2.90;;;;;;;;;;5101811;27;41306;-62
2023/07/11 10:23:14;;;;;;;5.32;2.08;;;;;;;;;;5098588;27;40959;-61
2023/07/11 10:25:43;;;;;;;4.57;2.15;;;;;;;;;;5105355;27;42139;-62
2023/07/11 10:28:17;;;;;;;6.85;2.80;;;;;;;;;;5103482;27;41702;-62
2023/07/11 10:30:45;;;;;;;8.18;2.70;;;;;;;;;;5104462;27;40989;-62
2023/07/11 10:33:14;;;;;;;7.00;2.60;;;;;;;;;;5102880;27;42119;-61
2023/07/11 10:35:48;;;;;;;8.13;2.20;;;;;;;;;;5105597;27;43965;-62
2023/07/11 10:38:17;;;;;;;5.68;2.63;;;;;;;;;;5103129;27;40856;-62
2023/07/11 10:40:45;;;;;;;8.70;2.55;;;;;;;;;;5106431;28;42590;-62
2023/07/11 10:43:16;;;;;;;6.05;2.33;;;;;;;;;;5103846;27;43094;-62
2023/07/11 10:45:45;;;;;;;7.55;3.30;;;;;;;;;;5105320;27;40336;-62
2023/07/11 10:48:19;;;;;;;11.20;2.10;;;;;;;;;;5103753;27;41694;-62
2023/07/11 10:50:48;;;;;;;9.73;2.53;;;;;;;;;;5103001;28;40425;-62
2023/07/11 10:53:19;;;;;;;8.82;2.50;;;;;;;;;;5105763;27;42533;-62
2023/07/11 10:55:48;;;;;;;6.82;2.67;;;;;;;;;;5104593;27;41720;-62
2023/07/11 10:58:17;;;;;;;6.30;3.50;;;;;;;;;;5104282;27;39381;-62
2023/07/11 11:00:49;;;;;;;7.75;4.65;;;;;;;;;;5105054;27;43052;-62
2023/07/11 11:03:34;;;;;;;10.90;3.78;;;;;;;;;;5107526;27;42147;-60
2023/07/11 11:06:06;;;;;;;11.95;5.55;;;;;;;;;;5108438;27;41221;-62
2023/07/11 11:08:36;;;;;;;7.82;3.65;;;;;;;;;;5108896;27;41762;-62
2023/07/11 11:11:06;;;;;;;7.18;3.58;;;;;;;;;;5109061;27;43167;-65
2023/07/11 11:13:38;;;;;;;9.55;3.08;;;;;;;;;;5107432;27;42319;-65
2023/07/11 11:16:09;;;;;;;4.80;2.28;;;;;;;;;;5108718;27;44512;-63
2023/07/11 11:18:44;;;;;;;7.32;2.70;;;;;;;;;;5107254;27;41321;-62
2023/07/11 11:21:16;;;;;;;11.45;2.72;;;;;;;;;;5109297;27;42182;-64
2023/07/11 11:23:53;;;;;;;6.63;2.38;;;;;;;;;;5101998;27;41714;-61
2023/07/11 11:26:24;;;;;;;5.95;2.42;;;;;;;;;;5095146;27;39381;-61
2023/07/11 11:28:54;;;;;;;7.35;2.20;;;;;;;;;;5094629;27;41661;-63
2023/07/11 11:31:25;;;;;;;7.15;2.58;;;;;;;;;;5107528;27;41718;-66
2023/07/11 11:33:56;;;;;;;10.35;2.67;;;;;;;;;;5108036;27;40599;-67
2023/07/11 11:36:27;;;;;;;4.57;2.50;;;;;;;;;;5107390;27;42386;-66
2023/07/11 11:38:58;;;;;;;6.07;2.40;;;;;;;;;;5108355;27;40600;-66
2023/07/11 11:41:29;;;;;;;9.25;2.50;;;;;;;;;;5100677;27;41307;-66
2023/07/11 11:43:57;;;;;;;9.73;2.58;;;;;;;;;;5101001;28;42064;-66
2023/07/11 11:46:28;;;;;;;6.50;2.60;;;;;;;;;;5107713;27;39822;-67
2023/07/11 11:49:00;;;;;;;10.30;2.40;;;;;;;;;;5103979;27;41700;-66
2023/07/11 11:51:33;;;;;;;8.52;2.78;;;;;;;;;;5086912;28;41238;-66
2023/07/11 11:54:04;;;;;;;7.80;2.20;;;;;;;;;;5105791;28;40382;-66
2023/07/11 11:56:34;;;;;;;4.30;2.15;;;;;;;;;;5108019;27;42231;-69
2023/07/11 11:59:03;;;;;;;10.77;3.25;;;;;;;;;;5106736;27;40848;-64
2023/07/11 12:01:34;;;;;;;4.18;2.40;;;;;;;;;;5106883;27;41729;-65
2023/07/11 12:04:09;;;;;;;5.13;2.10;;;;;;;;;;5108134;27;43113;-65
2023/07/11 12:06:40;;;;;;;6.10;2.70;;;;;;;;;;5107465;27;41212;-65
2023/07/11 12:09:23;;;;;;;5.57;2.63;;;;;;;;;;5100617;27;41654;-65
2023/07/11 12:12:04;;;;;;;3.60;2.47;;;;;;;;;;5100642;28;42196;-65
2023/07/11 12:14:35;;;;;;;5.25;2.60;;;;;;;;;;5099747;28;40248;-59
2023/07/11 12:17:03;;;;;;;7.75;2.83;;;;;;;;;;5107188;27;41544;-65
2023/07/11 12:19:33;;;;;;;6.50;3.08;;;;;;;;;;5102304;27;41422;-61
2023/07/11 12:22:05;;;;;;;4.30;2.63;;;;;;;;;;5088850;28;42013;-61
2023/07/11 12:24:42;;;;;;;5.15;3.00;;;;;;;;;;5095827;28;42204;-60
2023/07/11 12:27:26;;;;;;;7.63;2.63;;;;;;;;;;5099909;28;40159;-61
2023/07/11 12:29:54;;;;;;;7.50;2.75;;;;;;;;;;5095325;28;42578;-60
2023/07/11 12:32:41;;;;;;;6.32;2.83;;;;;;;;;;5106979;27;43013;-60
2023/07/11 12:35:14;;;;;;;10.35;6.10;;;;;;;;;;5101294;27;40419;-61
2023/07/11 12:37:47;;;;;;;17.35;9.75;;;;;;;;;;5107161;27;41697;-60
2023/07/11 12:40:16;;;;;;;12.05;6.97;;;;;;;;;;5107503;27;41420;-61
2023/07/11 12:42:47;;;;;;;12.52;5.03;;;;;;;;;;5107611;27;42130;-64
2023/07/11 12:45:15;;;;;;;9.20;4.90;;;;;;;;;;5106346;27;41763;-61
2023/07/11 12:47:44;;;;;;;6.40;3.97;;;;;;;;;;5107899;27;41353;-60
2023/07/11 12:50:19;;;;;;;6.80;3.50;;;;;;;;;;5104820;27;42550;-61
2023/07/11 12:52:48;;;;;;;6.75;2.97;;;;;;;;;;5087418;28;43380;-62
2023/07/11 12:55:16;;;;;;;6.13;3.20;;;;;;;;;;5086079;28;40850;-61
2023/07/11 12:57:44;;;;;;;8.63;2.90;;;;;;;;;;5086178;28;42077;-60
2023/07/11 13:00:18;;;;;;;4.38;2.67;;;;;;;;;;5086611;28;42831;-60
2023/07/11 13:02:46;;;;;;;7.47;3.47;;;;;;;;;;5087386;28;40164;-60
2023/07/11 13:05:14;;;;;;;6.80;2.65;;;;;;;;;;5086220;28;42351;-60
2023/07/11 13:07:44;;;;;;;5.03;2.95;;;;;;;;;;5086376;28;41011;-60
2023/07/11 13:10:18;;;;;;;6.80;2.58;;;;;;;;;;5105811;27;41209;-60
2023/07/11 13:12:46;;;;;;;5.68;2.85;;;;;;;;;;5109347;27;42039;-60
2023/07/11 13:15:15;;;;;;;7.30;2.95;;;;;;;;;;5110527;27;41000;-59
2023/07/11 13:17:43;;;;;;;3.90;2.50;;;;;;;;;;5105599;27;41293;-60
2023/07/11 13:20:16;;;;;;;4.38;2.78;;;;;;;;;;5089182;28;42018;-63
2023/07/11 13:22:44;;;;;;;4.65;2.65;;;;;;;;;;5101257;28;40406;-60
2023/07/11 13:25:15;;;;;;;7.28;2.72;;;;;;;;;;5100068;27;41111;-60
2023/07/11 13:27:46;;;;;;;7.57;2.75;;;;;;;;;;5098971;28;41451;-60
2023/07/11 13:30:18;;;;;;;6.30;2.67;;;;;;;;;;5105282;27;41124;-60
2023/07/11 13:32:46;;;;;;;3.95;2.38;;;;;;;;;;5106997;27;42019;-60
2023/07/11 13:35:16;;;;;;;5.50;2.47;;;;;;;;;;5105672;27;39798;-59
2023/07/11 13:37:47;;;;;;;7.07;2.90;;;;;;;;;;5107963;27;42130;-59
2023/07/11 13:40:39;;;;;;;5.85;2.40;;;;;;;;;;5104629;28;43008;-61
2023/07/11 13:43:15;;;;;;;5.28;2.75;;;;;;;;;;5091690;27;39935;-59
2023/07/11 13:45:47;;;;;;;4.22;2.67;;;;;;;;;;5103582;27;42454;-59
2023/07/11 13:48:16;;;;;;;4.72;2.45;;;;;;;;;;5105514;28;42022;-60
2023/07/11 13:50:44;;;;;;;9.05;3.05;;;;;;;;;;5105291;27;41496;-58
2023/07/11 13:53:13;;;;;;;4.88;2.60;;;;;;;;;;5106266;28;41486;-58
2023/07/11 13:55:44;;;;;;;5.13;2.67;;;;;;;;;;5106008;27;41429;-58
2023/07/11 13:58:14;;;;;;;5.38;2.65;;;;;;;;;;5106977;27;43149;-58
2023/07/11 14:00:44;;;;;;;3.95;2.60;;;;;;;;;;5106346;28;42681;-57
2023/07/11 14:03:15;;;;;;;3.55;2.65;;;;;;;;;;5105517;28;42268;-58
2023/07/11 14:05:45;;;;;;;5.85;2.90;;;;;;;;;;5107202;27;42721;-57
2023/07/11 14:08:13;;;;;;;4.75;3.00;;;;;;;;;;5104440;28;42670;-58
2023/07/11 14:10:41;;;;;;;4.43;2.58;;;;;;;;;;5107424;27;41507;-58
2023/07/11 14:13:11;;;;;;;3.25;2.22;;;;;;;;;;5106374;28;42382;-58
2023/07/11 14:15:41;;;;;;;6.53;2.85;;;;;;;;;;5098599;28;41274;-58
2023/07/11 14:18:09;;;;;;;4.50;2.85;;;;;;;;;;5106475;27;41776;-61
2023/07/11 14:20:38;;;;;;;6.47;2.97;;;;;;;;;;5103637;28;42328;-54
2023/07/11 14:23:10;;;;;;;4.72;2.65;;;;;;;;;;5094762;28;40407;-55
2023/07/11 14:25:38;;;;;;;7.72;3.25;;;;;;;;;;5097578;27;42732;-55
2023/07/11 14:28:06;;;;;;;6.82;3.08;;;;;;;;;;5094479;28;41822;-53
2023/07/11 14:30:34;;;;;;;4.78;2.80;;;;;;;;;;5090675;28;40903;-53
2023/07/11 14:33:05;;;;;;;7.22;3.13;;;;;;;;;;5103262;28;43048;-55
2023/07/11 14:35:33;;;;;;;4.40;2.70;;;;;;;;;;5098024;27;40496;-55
2023/07/11 14:38:01;;;;;;;4.15;2.70;;;;;;;;;;5098365;28;42640;-52
2023/07/11 14:40:29;;;;;;;6.30;2.63;;;;;;;;;;5100661;28;41586;-53
2023/07/11 14:42:57;;;;;;;6.47;2.97;;;;;;;;;;5102213;28;40145;-57
2023/07/11 14:45:25;;;;;;;7.25;2.70;;;;;;;;;;5099936;28;42399;-59
2023/07/11 14:47:54;;;;;;;5.72;2.80;;;;;;;;;;5097260;28;42592;-58
2023/07/11 14:50:24;;;;;;;5.40;3.15;;;;;;;;;;5096124;28;40405;-58
2023/07/11 14:52:52;;;;;;;6.75;2.72;;;;;;;;;;5102893;27;41734;-58